Авиационная погода в Батуми

Регион: 
Погода METAR: 
UGSB 201430Z 29004KT 250V320 9999 FEW032 24/18 Q1016 NOSIG
Время наблюдения: 
2020-09-20T14:30:00Z
Температура C: 
24.0
Точка росы: 
18.0
Направление ветра: 
290
Скорость ветра (узлы): 
4
Метеорологическая видимость: 
6.21
Условия полета: 
VFR

Найти трансфер

С помощью этой формы Вы можете найти трансфер из аэропорта Авиационная погода в Батуми в город, аэропорт или вокзал: